createdAt,value
2022-12-27T00:01:13.498Z,0.40
2022-12-27T00:03:41.272Z,0.43
2022-12-27T00:06:14.617Z,0.30
2022-12-27T00:08:41.567Z,0.40
2022-12-27T00:11:10.726Z,0.50
2022-12-27T00:13:37.384Z,0.50
2022-12-27T00:16:10.572Z,0.30
2022-12-27T00:18:38.923Z,0.30
2022-12-27T00:21:07.596Z,0.43
2022-12-27T00:23:36.962Z,0.50
2022-12-27T00:26:21.855Z,0.40
2022-12-27T00:28:49.100Z,0.30
2022-12-27T00:31:16.878Z,0.38
2022-12-27T00:33:46.001Z,0.40
2022-12-27T00:36:15.618Z,0.40
2022-12-27T00:38:42.817Z,0.60
2022-12-27T00:41:09.626Z,0.40
2022-12-27T00:43:36.730Z,0.30
2022-12-27T00:46:03.626Z,0.47
2022-12-27T00:48:30.849Z,0.60
2022-12-27T00:51:07.032Z,0.35
2022-12-27T00:53:34.790Z,0.32
2022-12-27T00:56:01.753Z,0.52
2022-12-27T00:58:28.678Z,0.40
2022-12-27T01:00:55.444Z,0.40
2022-12-27T01:03:22.086Z,0.60
2022-12-27T01:05:48.694Z,0.50
2022-12-27T01:08:15.352Z,0.40
2022-12-27T01:10:41.969Z,0.52
2022-12-27T01:13:08.862Z,0.30
2022-12-27T01:15:35.443Z,0.40
2022-12-27T01:18:02.132Z,0.60
2022-12-27T01:20:28.757Z,0.65
2022-12-27T01:22:55.500Z,0.52
2022-12-27T01:25:22.102Z,0.47
2022-12-27T01:27:48.717Z,0.50
2022-12-27T01:30:15.423Z,0.40
2022-12-27T01:32:42.033Z,0.47
2022-12-27T01:35:09.296Z,0.50
2022-12-27T01:37:35.934Z,0.47
2022-12-27T01:40:02.540Z,0.77
2022-12-27T01:42:47.787Z,0.47
2022-12-27T01:45:28.344Z,0.50
2022-12-27T01:48:16.293Z,0.57
2022-12-27T01:50:47.327Z,0.70
2022-12-27T01:53:20.110Z,0.60
2022-12-27T01:56:09.150Z,0.38
2022-12-27T01:59:05.036Z,0.45
2022-12-27T02:01:42.259Z,0.32
2022-12-27T02:04:35.292Z,0.60
2022-12-27T02:09:39.393Z,0.43
2022-12-27T02:12:07.536Z,0.70
2022-12-27T02:14:46.182Z,0.52
2022-12-27T02:17:17.257Z,0.50
2022-12-27T02:20:14.765Z,0.50
2022-12-27T02:23:37.730Z,0.65
2022-12-27T02:26:40.658Z,0.50
2022-12-27T02:29:35.619Z,0.60
2022-12-27T02:32:35.418Z,0.60
2022-12-27T02:35:24.645Z,0.60
2022-12-27T02:37:57.893Z,0.75
2022-12-27T02:40:45.534Z,0.60
2022-12-27T02:43:31.359Z,0.50
2022-12-27T02:46:30.319Z,0.70
2022-12-27T02:49:17.069Z,0.50
2022-12-27T02:52:18.984Z,0.75
2022-12-27T02:55:20.500Z,0.73
2022-12-27T02:57:58.166Z,0.57
2022-12-27T03:00:44.584Z,0.73
2022-12-27T03:04:02.816Z,1.02
2022-12-27T03:06:58.516Z,0.90
2022-12-27T03:10:26.948Z,0.90
2022-12-27T03:13:37.666Z,0.82
2022-12-27T03:16:25.740Z,0.90
2022-12-27T03:19:40.830Z,0.80
2022-12-27T03:22:28.368Z,0.70
2022-12-27T03:25:15.761Z,0.70
2022-12-27T03:28:06.584Z,0.82
2022-12-27T03:30:52.692Z,0.80
2022-12-27T03:33:19.599Z,0.90
2022-12-27T03:36:10.973Z,0.80
2022-12-27T03:39:05.347Z,0.90
2022-12-27T03:41:57.602Z,1.63
2022-12-27T03:44:25.984Z,0.65
2022-12-27T03:47:38.516Z,0.70
2022-12-27T03:50:18.861Z,0.87
2022-12-27T03:52:52.947Z,0.82
2022-12-27T03:55:19.692Z,0.70
2022-12-27T03:57:46.485Z,0.70
2022-12-27T04:00:14.091Z,0.80
2022-12-27T04:02:41.231Z,0.95
2022-12-27T04:05:08.477Z,0.60
2022-12-27T04:07:35.449Z,30.50
2022-12-27T04:10:21.009Z,3.33
2022-12-27T04:13:06.447Z,1.35
2022-12-27T04:15:51.868Z,1.25
2022-12-27T04:18:37.104Z,0.90
2022-12-27T04:21:22.508Z,0.73
2022-12-27T04:24:08.051Z,0.80
2022-12-27T04:26:53.305Z,0.82
2022-12-27T04:29:38.750Z,1.17
2022-12-27T04:32:23.918Z,0.80
2022-12-27T04:34:50.565Z,0.77
2022-12-27T04:37:19.282Z,0.63
2022-12-27T04:40:10.835Z,0.60
2022-12-27T04:42:56.199Z,1.27
2022-12-27T04:45:41.575Z,1.10
2022-12-27T04:48:32.329Z,0.98
2022-12-27T04:51:18.775Z,0.82
2022-12-27T04:54:04.202Z,0.80
2022-12-27T04:56:30.842Z,0.90
2022-12-27T04:59:15.955Z,0.60
2022-12-27T05:02:01.388Z,0.77
2022-12-27T05:04:28.113Z,0.80
2022-12-27T05:06:55.148Z,0.85
2022-12-27T05:09:40.240Z,0.70
2022-12-27T05:12:28.015Z,0.73
2022-12-27T05:14:54.676Z,0.90
2022-12-27T05:17:21.250Z,0.90
2022-12-27T05:19:47.834Z,1.20
2022-12-27T05:22:33.075Z,0.85
2022-12-27T05:25:18.520Z,1.05
2022-12-27T05:27:45.192Z,0.70
2022-12-27T05:30:12.298Z,0.98
2022-12-27T05:32:38.901Z,1.00
2022-12-27T05:35:06.072Z,1.20
2022-12-27T05:37:32.847Z,0.82
2022-12-27T05:39:59.455Z,1.10
2022-12-27T05:42:26.036Z,1.00
2022-12-27T05:44:52.606Z,0.80
2022-12-27T05:47:19.190Z,1.10
2022-12-27T05:49:45.793Z,1.20
2022-12-27T05:52:12.369Z,1.00
2022-12-27T05:54:38.958Z,0.95
2022-12-27T05:57:05.583Z,1.13
2022-12-27T05:59:32.159Z,2.65
2022-12-27T06:01:58.891Z,1.10
2022-12-27T06:04:25.569Z,1.13
2022-12-27T06:06:52.159Z,1.02
2022-12-27T06:09:18.767Z,1.20
2022-12-27T06:11:45.353Z,1.15
2022-12-27T06:14:11.992Z,1.10
2022-12-27T06:16:38.687Z,1.40
2022-12-27T06:19:05.335Z,1.45
2022-12-27T06:21:31.988Z,1.45
2022-12-27T06:23:58.590Z,1.50
2022-12-27T06:26:27.556Z,4.40
2022-12-27T06:28:56.013Z,2.35
2022-12-27T06:31:23.848Z,6.80
2022-12-27T06:33:51.705Z,1.45
2022-12-27T06:36:21.020Z,2.53
2022-12-27T06:38:48.300Z,1.60
2022-12-27T06:41:17.465Z,1.52
2022-12-27T06:43:44.987Z,1.30
2022-12-27T06:46:17.578Z,1.33
2022-12-27T06:48:46.083Z,3.20
2022-12-27T06:51:14.337Z,1.38
2022-12-27T06:53:41.171Z,1.60
2022-12-27T06:56:10.737Z,1.50
2022-12-27T06:58:37.750Z,1.75
2022-12-27T07:01:25.244Z,1.45
2022-12-27T07:03:54.502Z,1.67
2022-12-27T07:06:22.681Z,1.38
2022-12-27T07:08:50.709Z,1.63
2022-12-27T07:11:18.932Z,1.77
2022-12-27T07:13:48.383Z,1.88
2022-12-27T07:16:16.977Z,1.70
2022-12-27T07:18:44.043Z,1.30
2022-12-27T07:21:13.853Z,1.40
2022-12-27T07:23:40.500Z,1.40
2022-12-27T07:26:10.193Z,1.50
2022-12-27T07:28:37.716Z,1.08
2022-12-27T07:31:16.484Z,1.90
2022-12-27T07:33:43.945Z,1.60
2022-12-27T07:36:14.990Z,1.58
2022-12-27T07:38:41.711Z,1.65
2022-12-27T07:41:08.410Z,1.75
2022-12-27T07:43:35.899Z,1.80
2022-12-27T07:46:13.934Z,1.70
2022-12-27T07:48:41.186Z,1.58
2022-12-27T07:51:07.913Z,1.50
2022-12-27T07:53:35.477Z,1.52
2022-12-27T07:56:13.644Z,1.77
2022-12-27T07:58:42.264Z,1.55
2022-12-27T08:01:10.504Z,1.58
2022-12-27T08:03:38.030Z,1.85
2022-12-27T08:06:05.460Z,1.38
2022-12-27T08:08:38.492Z,1.50
2022-12-27T08:11:06.138Z,1.88
2022-12-27T08:13:33.322Z,1.73
2022-12-27T08:15:59.888Z,2.00
2022-12-27T08:18:26.630Z,1.60
2022-12-27T08:20:53.270Z,1.45
2022-12-27T08:23:20.292Z,1.30
2022-12-27T08:25:49.091Z,1.42
2022-12-27T08:28:17.688Z,2.22
2022-12-27T08:30:45.600Z,1.60
2022-12-27T08:33:12.695Z,1.95
2022-12-27T08:35:55.791Z,2.25
2022-12-27T08:38:22.432Z,1.30
2022-12-27T08:40:49.073Z,1.10
2022-12-27T08:43:15.702Z,1.50
2022-12-27T08:45:42.307Z,1.63
2022-12-27T08:48:09.028Z,1.30
2022-12-27T08:50:35.684Z,1.65
2022-12-27T08:53:04.184Z,1.50
2022-12-27T08:55:31.031Z,0.95
2022-12-27T08:58:03.120Z,1.58
2022-12-27T09:00:31.276Z,1.33
2022-12-27T09:02:58.577Z,1.00
2022-12-27T09:05:26.822Z,1.45
2022-12-27T09:07:54.017Z,2.17
2022-12-27T09:10:22.340Z,1.20
2022-12-27T09:12:49.237Z,1.50
2022-12-27T09:15:16.226Z,1.30
2022-12-27T09:17:43.182Z,1.60
2022-12-27T09:20:12.369Z,1.27
2022-12-27T09:22:39.534Z,1.15
2022-12-27T09:25:06.724Z,1.77
2022-12-27T09:27:35.099Z,1.30
2022-12-27T09:30:01.972Z,1.48
2022-12-27T09:32:28.493Z,1.50
2022-12-27T09:34:55.095Z,1.58
2022-12-27T09:37:21.795Z,1.42
2022-12-27T09:39:48.651Z,1.70
2022-12-27T09:43:07.490Z,1.75
2022-12-27T09:45:47.817Z,1.50
2022-12-27T09:48:38.353Z,1.30
2022-12-27T09:51:13.653Z,2.50
2022-12-27T09:53:51.126Z,1.67
2022-12-27T09:56:46.890Z,1.55
2022-12-27T09:59:41.856Z,1.48
2022-12-27T10:02:31.705Z,1.23
2022-12-27T10:08:15.556Z,2.65
2022-12-27T10:10:58.958Z,1.42
2022-12-27T10:13:47.007Z,1.15
2022-12-27T10:16:43.818Z,1.30
2022-12-27T10:19:41.241Z,1.42
2022-12-27T10:22:33.627Z,1.13
2022-12-27T10:25:05.026Z,1.15
2022-12-27T10:27:32.028Z,1.17
2022-12-27T10:30:00.217Z,1.40
2022-12-27T10:32:27.353Z,1.00
2022-12-27T10:35:01.236Z,0.80
2022-12-27T10:37:28.066Z,1.10
2022-12-27T10:39:58.074Z,1.15
2022-12-27T10:42:45.927Z,1.15
2022-12-27T10:45:29.052Z,1.10
2022-12-27T10:47:58.565Z,1.20
2022-12-27T10:50:28.496Z,1.50
2022-12-27T10:52:57.691Z,1.10
2022-12-27T10:55:39.290Z,1.17
2022-12-27T10:58:43.171Z,1.25
2022-12-27T11:01:19.000Z,1.20
2022-12-27T11:03:45.824Z,1.45
2022-12-27T11:06:24.502Z,0.95
2022-12-27T11:08:53.141Z,1.65
2022-12-27T11:11:25.640Z,1.27
2022-12-27T11:13:53.114Z,1.00
2022-12-27T11:16:34.936Z,1.15
2022-12-27T11:19:03.340Z,1.17
2022-12-27T11:21:31.513Z,1.38
2022-12-27T11:24:01.765Z,1.05
2022-12-27T11:26:47.574Z,1.10
2022-12-27T11:29:21.455Z,1.13
2022-12-27T11:31:48.706Z,1.10
2022-12-27T11:34:29.901Z,1.35
2022-12-27T11:37:05.432Z,1.15
2022-12-27T11:39:43.820Z,1.33
2022-12-27T11:42:33.548Z,1.27
2022-12-27T11:45:18.426Z,1.55
2022-12-27T11:48:26.316Z,0.95
2022-12-27T11:51:54.766Z,1.98
2022-12-27T11:54:39.736Z,1.17
2022-12-27T11:57:56.671Z,1.33
2022-12-27T12:00:27.231Z,1.05
2022-12-27T12:03:20.544Z,1.38
2022-12-27T12:06:16.894Z,1.10
2022-12-27T12:09:44.781Z,1.30
2022-12-27T12:12:52.651Z,1.35
2022-12-27T12:15:57.458Z,1.55
2022-12-27T12:18:36.773Z,1.05
2022-12-27T12:21:25.828Z,1.85
2022-12-27T12:24:41.134Z,1.00
2022-12-27T12:27:42.491Z,2.33
2022-12-27T12:30:37.791Z,1.23
2022-12-27T12:33:42.948Z,1.40
2022-12-27T12:36:52.718Z,1.35
2022-12-27T12:46:38.829Z,1.40
2022-12-27T12:49:46.399Z,1.50
2022-12-27T12:55:58.995Z,1.23
2022-12-27T12:59:09.669Z,1.10
2022-12-27T13:08:10.223Z,1.30
2022-12-27T13:14:34.621Z,1.60
2022-12-27T13:17:16.778Z,1.40
2022-12-27T13:20:23.498Z,1.55
2022-12-27T13:23:56.521Z,1.55
2022-12-27T13:26:34.581Z,1.50
2022-12-27T13:29:29.023Z,1.23
2022-12-27T13:32:37.478Z,1.45
2022-12-27T13:35:27.154Z,1.58
2022-12-27T13:38:48.204Z,1.38
2022-12-27T13:41:31.377Z,1.40
2022-12-27T13:44:15.152Z,1.30
2022-12-27T13:47:24.769Z,1.10
2022-12-27T13:50:13.126Z,1.10
2022-12-27T13:56:55.435Z,1.45
2022-12-27T13:59:48.400Z,1.00
2022-12-27T14:03:09.415Z,1.35
2022-12-27T14:06:05.851Z,1.20
2022-12-27T14:09:05.345Z,1.30
2022-12-27T14:12:01.382Z,1.23
2022-12-27T14:14:29.779Z,1.92
2022-12-27T14:17:19.139Z,1.40
2022-12-27T14:20:32.522Z,1.63
2022-12-27T14:26:05.563Z,1.30
2022-12-27T14:29:22.721Z,1.90
2022-12-27T14:32:50.970Z,1.50
2022-12-27T14:35:52.010Z,1.42
2022-12-27T14:38:52.799Z,1.88
2022-12-27T14:41:52.992Z,1.17
2022-12-27T14:45:01.962Z,1.20
2022-12-27T14:48:06.241Z,1.38
2022-12-27T14:54:32.749Z,1.25
2022-12-27T14:57:36.936Z,0.98
2022-12-27T15:00:24.614Z,1.00
2022-12-27T15:03:21.416Z,1.50
2022-12-27T15:06:09.562Z,1.40
2022-12-27T15:08:46.672Z,1.27
2022-12-27T15:11:34.998Z,1.63
2022-12-27T15:14:41.408Z,1.38
2022-12-27T15:17:43.100Z,1.77
2022-12-27T15:20:52.853Z,1.90
2022-12-27T15:23:40.582Z,2.20
2022-12-27T15:26:42.133Z,2.17
2022-12-27T15:30:04.281Z,2.17
2022-12-27T15:32:53.454Z,2.05
2022-12-27T15:35:44.740Z,2.20
2022-12-27T15:38:52.989Z,2.58
2022-12-27T15:45:05.178Z,2.50
2022-12-27T15:47:55.128Z,2.75
2022-12-27T15:50:38.610Z,4.20
2022-12-27T15:53:38.076Z,3.67
2022-12-27T15:56:40.863Z,4.10
2022-12-27T15:59:46.876Z,3.20
2022-12-27T16:02:25.532Z,3.00
2022-12-27T16:05:31.004Z,3.60
2022-12-27T16:08:25.957Z,3.03
2022-12-27T16:10:53.004Z,2.30
2022-12-27T16:13:46.337Z,2.72
2022-12-27T16:16:28.433Z,3.80
2022-12-27T16:19:19.957Z,3.72
2022-12-27T16:21:50.468Z,2.97
2022-12-27T16:24:25.576Z,3.33
2022-12-27T16:26:58.341Z,2.63
2022-12-27T16:29:30.034Z,3.30
2022-12-27T16:32:16.763Z,3.07
2022-12-27T16:34:45.612Z,2.92
2022-12-27T16:37:25.348Z,3.80
2022-12-27T16:40:19.891Z,3.47
2022-12-27T16:43:18.503Z,3.95
2022-12-27T16:46:08.540Z,3.67
2022-12-27T16:49:27.710Z,3.75
2022-12-27T16:52:48.063Z,4.53
2022-12-27T16:55:29.862Z,17.33
2022-12-27T16:58:36.152Z,14.65
2022-12-27T17:01:05.628Z,11.95
2022-12-27T17:03:49.889Z,9.68
2022-12-27T17:06:52.543Z,8.65
2022-12-27T17:09:21.557Z,6.82
2022-12-27T17:12:08.352Z,7.50
2022-12-27T17:14:44.253Z,21.27
2022-12-27T17:17:17.532Z,39.58
2022-12-27T17:20:07.561Z,19.95
2022-12-27T17:22:38.480Z,10.02
2022-12-27T17:25:05.503Z,8.48
2022-12-27T17:28:01.356Z,7.65
2022-12-27T17:30:44.917Z,5.72
2022-12-27T17:33:50.380Z,3.60
2022-12-27T17:36:21.593Z,4.10
2022-12-27T17:39:00.691Z,3.22
2022-12-27T17:42:17.114Z,3.80
2022-12-27T17:44:59.171Z,5.95
2022-12-27T17:47:47.421Z,7.22
2022-12-27T17:50:18.148Z,5.35
2022-12-27T17:53:49.452Z,6.38
2022-12-27T17:56:40.558Z,10.38
2022-12-27T17:59:23.392Z,17.80
2022-12-27T18:01:53.569Z,27.58
2022-12-27T18:04:33.795Z,13.20
2022-12-27T18:07:02.997Z,11.93
2022-12-27T18:09:53.849Z,13.93
2022-12-27T18:12:34.585Z,11.60
2022-12-27T18:15:05.330Z,9.48
2022-12-27T18:17:37.500Z,11.13
2022-12-27T18:20:25.678Z,11.30
2022-12-27T18:23:06.497Z,6.88
2022-12-27T18:25:41.981Z,7.05
2022-12-27T18:28:32.492Z,9.52
2022-12-27T18:31:35.187Z,6.97
2022-12-27T18:34:55.195Z,5.47
2022-12-27T18:37:26.281Z,4.35
2022-12-27T18:40:02.520Z,3.03
2022-12-27T18:42:43.216Z,3.55
2022-12-27T18:45:29.082Z,5.75
2022-12-27T18:47:59.768Z,4.40
2022-12-27T18:50:32.602Z,5.45
2022-12-27T18:53:21.321Z,4.88
2022-12-27T18:56:04.861Z,3.38
2022-12-27T18:58:32.219Z,5.10
2022-12-27T19:01:20.397Z,4.22
2022-12-27T19:04:18.525Z,4.70
2022-12-27T19:07:12.579Z,6.13
2022-12-27T19:09:50.685Z,6.68
2022-12-27T19:12:27.986Z,6.80
2022-12-27T19:14:57.757Z,7.47
2022-12-27T19:17:29.766Z,6.10
2022-12-27T19:20:08.206Z,5.82
2022-12-27T19:22:53.256Z,6.60
2022-12-27T19:25:31.630Z,5.50
2022-12-27T19:28:19.377Z,5.88
2022-12-27T19:30:51.532Z,8.23
2022-12-27T19:33:26.824Z,8.75
2022-12-27T19:35:53.951Z,7.93
2022-12-27T19:38:26.885Z,8.23
2022-12-27T19:41:03.298Z,7.05
2022-12-27T19:43:40.036Z,5.07
2022-12-27T19:46:06.861Z,4.60
2022-12-27T19:48:33.456Z,5.10
2022-12-27T19:51:00.091Z,4.15
2022-12-27T19:53:36.854Z,4.80
2022-12-27T19:56:03.867Z,4.70
2022-12-27T19:58:30.973Z,4.30
2022-12-27T20:00:57.930Z,4.35
2022-12-27T20:03:25.233Z,4.55
2022-12-27T20:06:13.557Z,4.53
2022-12-27T20:08:48.362Z,4.47
2022-12-27T20:11:18.305Z,4.78
2022-12-27T20:13:47.376Z,4.28
2022-12-27T20:16:17.362Z,5.57
2022-12-27T20:18:45.071Z,4.80
2022-12-27T20:21:17.118Z,5.35
2022-12-27T20:23:44.175Z,5.03
2022-12-27T20:26:11.922Z,5.10
2022-12-27T20:28:38.748Z,4.53
2022-12-27T20:31:10.851Z,4.13
2022-12-27T20:33:37.462Z,4.93
2022-12-27T20:36:04.908Z,4.63
2022-12-27T20:38:32.157Z,4.20
2022-12-27T20:41:09.514Z,5.18
2022-12-27T20:43:36.346Z,4.57
2022-12-27T20:46:08.095Z,5.15
2022-12-27T20:48:43.673Z,5.03
2022-12-27T20:51:15.758Z,4.68
2022-12-27T20:53:42.703Z,4.60
2022-12-27T20:56:11.071Z,4.68
2022-12-27T20:58:37.685Z,4.90
2022-12-27T21:01:15.927Z,5.15
2022-12-27T21:03:43.620Z,5.47
2022-12-27T21:06:30.222Z,4.82
2022-12-27T21:08:58.532Z,4.70
2022-12-27T21:11:33.550Z,4.55
2022-12-27T21:14:01.894Z,4.85
2022-12-27T21:16:34.806Z,4.78
2022-12-27T21:19:05.083Z,4.85
2022-12-27T21:21:34.363Z,4.78
2022-12-27T21:24:00.972Z,4.38
2022-12-27T21:26:33.734Z,5.10
2022-12-27T21:29:01.369Z,4.43
2022-12-27T21:31:30.628Z,4.78
2022-12-27T21:33:59.491Z,4.32
2022-12-27T21:36:29.998Z,4.45
2022-12-27T21:38:57.583Z,5.07
2022-12-27T21:41:26.308Z,4.30
2022-12-27T21:43:53.369Z,4.85
2022-12-27T21:46:31.797Z,4.75
2022-12-27T21:49:01.040Z,4.45
2022-12-27T21:51:28.970Z,4.47
2022-12-27T21:53:56.069Z,4.38
2022-12-27T21:56:23.120Z,4.32
2022-12-27T21:58:50.150Z,4.15
2022-12-27T22:01:25.782Z,4.93
2022-12-27T22:03:53.911Z,3.97
2022-12-27T22:06:26.218Z,5.10
2022-12-27T22:08:55.163Z,4.53
2022-12-27T22:11:23.307Z,3.95
2022-12-27T22:13:50.885Z,5.28
2022-12-27T22:16:19.925Z,4.20
2022-12-27T22:18:47.433Z,4.20
2022-12-27T22:21:20.466Z,3.80
2022-12-27T22:23:48.980Z,4.88
2022-12-27T22:26:18.694Z,4.10
2022-12-27T22:28:45.644Z,3.60
2022-12-27T22:31:17.240Z,3.55
2022-12-27T22:33:43.994Z,4.03
2022-12-27T22:36:14.231Z,3.80
2022-12-27T22:38:41.257Z,3.20
2022-12-27T22:41:17.039Z,4.07
2022-12-27T22:43:58.684Z,3.22
2022-12-27T22:46:26.378Z,3.25
2022-12-27T22:48:55.155Z,3.40
2022-12-27T22:51:24.231Z,3.45
2022-12-27T22:53:51.209Z,3.22
2022-12-27T22:56:20.344Z,3.05
2022-12-27T22:58:47.704Z,3.35
2022-12-27T23:01:23.454Z,3.35
2022-12-27T23:03:50.521Z,2.92
2022-12-27T23:06:17.703Z,3.92
2022-12-27T23:08:45.014Z,3.92
2022-12-27T23:11:14.687Z,3.65
2022-12-27T23:13:41.381Z,3.20
2022-12-27T23:16:08.354Z,3.35
2022-12-27T23:18:36.686Z,3.38
2022-12-27T23:21:21.523Z,3.38
2022-12-27T23:23:50.478Z,4.07
2022-12-27T23:26:19.509Z,5.55
2022-12-27T23:28:47.530Z,3.88
2022-12-27T23:31:15.060Z,4.53
2022-12-27T23:33:42.962Z,3.72
2022-12-27T23:36:10.969Z,4.15
2022-12-27T23:38:37.764Z,4.25
2022-12-27T23:41:06.831Z,4.20
2022-12-27T23:43:55.869Z,4.22
2022-12-27T23:46:28.176Z,4.20
2022-12-27T23:48:56.336Z,3.85
2022-12-27T23:51:23.169Z,3.78
2022-12-27T23:53:49.953Z,3.30
2022-12-27T23:56:28.409Z,3.30
2022-12-27T23:58:56.757Z,3.85
